Time;durP1;ratioP1;P1;durP2;ratioP2;P2;SDS_P1;SDS_P2;PMS_P1;PMS_P2;Temp;Humidity;BMP_temperature;BMP_pressure;BME280_temperature;BME280_humidity;BME280_pressure;Samples;Min_cycle;Max_cycle;Signal;HPM_P1;HPM_P2
2022/10/25 00:00:35;;;;;;;;;;;12.20;99.90;;;;;;4973329;28;213654;-69
2022/10/25 00:03:01;;;;;;;;;;;12.20;99.90;;;;;;5019141;28;19921;-71
2022/10/25 00:05:27;;;;;;;;;;;12.20;99.90;;;;;;4901496;28;1395477;-71
2022/10/25 00:07:53;;;;;;;;;;;12.20;99.90;;;;;;5007003;28;19943;-69
2022/10/25 00:10:19;;;;;;;;;;;12.20;99.90;;;;;;4973505;28;210451;-71
2022/10/25 00:12:44;;;;;;;;;;;12.20;99.90;;;;;;5004197;28;19924;-70
2022/10/25 00:15:12;;;;;;;;;;;12.10;99.90;;;;;;4974526;28;134391;-70
2022/10/25 00:17:39;;;;;;;;;;;12.10;99.90;;;;;;5038725;28;19925;-70
2022/10/25 00:20:05;;;;;;;;;;;12.10;99.90;;;;;;4973950;28;206188;-72
2022/10/25 00:22:31;;;;;;;;;;;12.10;99.90;;;;;;5013108;28;19921;-70
2022/10/25 00:24:57;;;;;;;;;;;12.10;99.90;;;;;;4971395;28;238194;-70
2022/10/25 00:27:23;;;;;;;;;;;12.10;99.90;;;;;;5013550;28;19921;-70
2022/10/25 00:29:53;;;;;;;;;;;12.20;99.90;;;;;;4974867;28;207689;-71
2022/10/25 00:32:19;;;;;;;;;;;12.20;99.90;;;;;;5013994;28;19925;-71
2022/10/25 00:34:45;;;;;;;;;;;12.20;99.90;;;;;;4980922;28;212460;-71
2022/10/25 00:37:11;;;;;;;;;;;12.20;99.90;;;;;;5019629;28;19921;-70
2022/10/25 00:39:40;;;;;;;;;;;12.20;99.90;;;;;;5011116;28;207792;-70
2022/10/25 00:42:08;;;;;;;;;;;12.20;99.90;;;;;;4990402;28;162026;-69
2022/10/25 00:44:40;;;;;;;;;;;12.20;99.90;;;;;;5008734;28;19924;-70
2022/10/25 00:47:18;;;;;;;;;;;12.20;99.90;;;;;;4950336;28;212843;-69
2022/10/25 00:49:45;;;;;;;;;;;12.30;99.90;;;;;;4987394;28;217798;-70
2022/10/25 00:52:12;;;;;;;;;;;12.30;99.90;;;;;;5013034;28;19924;-71
2022/10/25 00:54:41;;;;;;;;;;;12.30;99.90;;;;;;5006287;28;206817;-69
2022/10/25 00:57:13;;;;;;;;;;;12.30;99.90;;;;;;4975864;28;19920;-70
2022/10/25 00:59:42;;;;;;;;;;;12.40;99.90;;;;;;5023078;28;208170;-71
2022/10/25 01:02:08;;;;;;;;;;;12.40;99.90;;;;;;4963223;28;19917;-70
2022/10/25 01:04:34;;;;;;;;;;;12.40;99.90;;;;;;5011148;28;19928;-69
2022/10/25 01:07:01;;;;;;;;;;;12.40;99.90;;;;;;4971273;28;232307;-69
2022/10/25 01:09:29;;;;;;;;;;;12.40;99.90;;;;;;5007665;28;19917;-71
2022/10/25 01:11:55;;;;;;;;;;;12.40;99.90;;;;;;4964982;28;209198;-70
2022/10/25 01:14:21;;;;;;;;;;;12.40;99.90;;;;;;5022255;28;19924;-70
2022/10/25 01:16:57;;;;;;;;;;;12.40;99.90;;;;;;4969435;28;206997;-70
2022/10/25 01:19:36;;;;;;;;;;;12.50;99.90;;;;;;5031631;28;19929;-70
2022/10/25 01:22:05;;;;;;;;;;;12.40;99.90;;;;;;4948205;28;88637;-71
2022/10/25 01:24:46;;;;;;;;;;;12.40;99.90;;;;;;5026833;28;19921;-71
2022/10/25 01:27:38;;;;;;;;;;;12.40;99.90;;;;;;4955272;28;207093;-71
2022/10/25 01:30:10;;;;;;;;;;;12.40;99.90;;;;;;4986191;28;163683;-70
2022/10/25 01:32:36;;;;;;;;;;;12.40;99.90;;;;;;5032922;28;19925;-70
2022/10/25 01:35:11;;;;;;;;;;;12.50;99.90;;;;;;4965585;28;202279;-69
2022/10/25 01:37:37;;;;;;;;;;;12.50;99.90;;;;;;5049983;28;19924;-71
2022/10/25 01:40:07;;;;;;;;;;;12.50;99.90;;;;;;4989189;28;68530;-70
2022/10/25 01:42:42;;;;;;;;;;;12.50;99.90;;;;;;5040738;28;19928;-69
2022/10/25 01:45:12;;;;;;;;;;;12.50;99.90;;;;;;4983907;28;184902;-72
2022/10/25 01:48:04;;;;;;;;;;;12.60;99.90;;;;;;5019391;28;20325;-71
2022/10/25 01:50:33;;;;;;;;;;;12.60;99.90;;;;;;4987083;28;123793;-71
2022/10/25 01:53:02;;;;;;;;;;;12.60;99.90;;;;;;5031203;28;19920;-72
2022/10/25 01:55:32;;;;;;;;;;;12.60;99.90;;;;;;4990510;28;208269;-71
2022/10/25 01:57:58;;;;;;;;;;;12.60;99.90;;;;;;5016297;28;20432;-73
2022/10/25 02:00:25;;;;;;;;;;;12.70;99.90;;;;;;5010629;28;168778;-71
2022/10/25 02:02:51;;;;;;;;;;;12.60;99.90;;;;;;5019768;28;20320;-72
2022/10/25 02:05:23;;;;;;;;;;;12.60;99.90;;;;;;4911288;28;1396958;-71
2022/10/25 02:07:52;;;;;;;;;;;12.70;99.90;;;;;;5015512;28;19921;-71
2022/10/25 02:10:44;;;;;;;;;;;12.70;99.90;;;;;;4962867;28;148787;-72
2022/10/25 02:13:29;;;;;;;;;;;12.70;99.90;;;;;;5037593;28;19925;-71
2022/10/25 02:16:00;;;;;;;;;;;12.70;99.90;;;;;;4950366;28;118701;-70
2022/10/25 02:18:27;;;;;;;;;;;12.70;99.90;;;;;;4999187;28;19932;-69
2022/10/25 02:20:54;;;;;;;;;;;12.70;99.90;;;;;;4968540;28;138276;-70
2022/10/25 02:23:24;;;;;;;;;;;12.70;99.90;;;;;;4998321;28;20024;-70
2022/10/25 02:25:50;;;;;;;;;;;12.70;99.90;;;;;;4969615;28;207059;-72
2022/10/25 02:28:18;;;;;;;;;;;12.70;99.90;;;;;;4987365;28;19917;-70
2022/10/25 02:30:44;;;;;;;;;;;12.70;99.90;;;;;;4963057;28;206443;-71
2022/10/25 02:33:10;;;;;;;;;;;12.70;99.90;;;;;;5033812;28;19925;-70
2022/10/25 02:35:36;;;;;;;;;;;12.70;99.90;;;;;;4994512;28;116661;-71
2022/10/25 02:38:03;;;;;;;;;;;12.70;99.90;;;;;;5016248;28;19917;-71
2022/10/25 02:40:29;;;;;;;;;;;12.70;99.90;;;;;;4987339;28;203249;-72
2022/10/25 02:42:55;;;;;;;;;;;12.70;99.90;;;;;;4985009;28;20091;-71
2022/10/25 02:45:21;;;;;;;;;;;12.70;99.90;;;;;;4959036;28;221273;-71
2022/10/25 02:47:48;;;;;;;;;;;12.70;99.90;;;;;;4995313;28;19921;-73
2022/10/25 02:50:14;;;;;;;;;;;12.70;99.90;;;;;;4966993;28;206718;-72
2022/10/25 02:52:40;;;;;;;;;;;12.70;99.90;;;;;;5040170;28;19925;-71
2022/10/25 02:55:09;;;;;;;;;;;12.70;99.90;;;;;;4983332;28;179631;-72
2022/10/25 02:57:36;;;;;;;;;;;12.70;99.90;;;;;;5040613;28;19921;-71
2022/10/25 03:00:04;;;;;;;;;;;12.70;99.90;;;;;;4975785;28;214612;-72
2022/10/25 03:02:30;;;;;;;;;;;12.70;99.90;;;;;;5027908;28;19924;-73
2022/10/25 03:04:56;;;;;;;;;;;12.70;99.90;;;;;;4972335;28;208315;-72
2022/10/25 03:07:22;;;;;;;;;;;12.70;99.90;;;;;;4990799;28;20402;-74
2022/10/25 03:09:48;;;;;;;;;;;12.70;99.90;;;;;;4973220;28;197284;-72
2022/10/25 03:12:14;;;;;;;;;;;12.70;99.90;;;;;;5036705;28;20391;-71
2022/10/25 03:14:40;;;;;;;;;;;12.60;99.90;;;;;;5014337;28;206823;-71
2022/10/25 03:17:07;;;;;;;;;;;12.60;99.90;;;;;;4979829;28;19928;-72
2022/10/25 03:19:33;;;;;;;;;;;12.60;99.90;;;;;;5026689;28;19947;-71
2022/10/25 03:21:58;;;;;;;;;;;12.60;99.90;;;;;;4947004;28;237372;-72
2022/10/25 03:24:24;;;;;;;;;;;12.60;99.90;;;;;;5026802;28;19963;-72
2022/10/25 03:26:50;;;;;;;;;;;12.60;99.90;;;;;;4976872;28;160063;-75
2022/10/25 03:29:16;;;;;;;;;;;12.60;99.90;;;;;;5046677;28;19917;-73
2022/10/25 03:31:42;;;;;;;;;;;12.60;99.90;;;;;;4976406;28;154034;-73
2022/10/25 03:34:08;;;;;;;;;;;12.60;99.90;;;;;;5024470;28;19944;-72
2022/10/25 03:36:34;;;;;;;;;;;12.60;99.90;;;;;;4949023;28;196163;-71
2022/10/25 03:39:00;;;;;;;;;;;12.60;99.90;;;;;;5039584;28;19960;-72
2022/10/25 03:41:26;;;;;;;;;;;12.60;99.90;;;;;;4967918;28;145842;-72
2022/10/25 03:43:52;;;;;;;;;;;12.70;99.90;;;;;;5027767;28;19955;-72
2022/10/25 03:46:18;;;;;;;;;;;12.60;99.90;;;;;;5001227;28;211969;-73
2022/10/25 03:48:44;;;;;;;;;;;12.70;99.90;;;;;;5011862;28;19948;-71
2022/10/25 03:51:10;;;;;;;;;;;12.60;99.90;;;;;;4966526;28;183547;-73
2022/10/25 03:53:36;;;;;;;;;;;12.60;99.90;;;;;;5027249;28;19917;-72
2022/10/25 03:56:02;;;;;;;;;;;12.60;99.90;;;;;;4967537;28;190626;-72
2022/10/25 03:58:28;;;;;;;;;;;12.60;99.90;;;;;;5024552;28;20267;-71
2022/10/25 04:00:54;;;;;;;;;;;12.60;99.90;;;;;;4968111;28;154910;-72
2022/10/25 04:03:20;;;;;;;;;;;12.60;99.90;;;;;;5044770;28;20006;-72
2022/10/25 04:05:46;;;;;;;;;;;12.70;99.90;;;;;;4989728;28;154609;-71
2022/10/25 04:08:15;;;;;;;;;;;12.70;99.90;;;;;;5022398;28;19917;-72
2022/10/25 04:10:41;;;;;;;;;;;12.80;99.90;;;;;;4971485;28;207420;-72
2022/10/25 04:13:07;;;;;;;;;;;12.70;99.90;;;;;;5011984;28;20606;-72
2022/10/25 04:15:33;;;;;;;;;;;12.70;99.90;;;;;;5001602;28;158319;-73
2022/10/25 04:17:59;;;;;;;;;;;12.70;99.90;;;;;;5026241;28;19984;-72
2022/10/25 04:20:24;;;;;;;;;;;12.70;99.90;;;;;;4978011;28;208509;-71
2022/10/25 04:22:55;;;;;;;;;;;12.70;99.90;;;;;;5017956;28;20055;-70
2022/10/25 04:25:21;;;;;;;;;;;12.70;99.90;;;;;;4977978;28;157736;-72
2022/10/25 04:27:47;;;;;;;;;;;12.70;99.90;;;;;;4996648;28;19925;-73
2022/10/25 04:30:13;;;;;;;;;;;12.70;99.90;;;;;;4982944;28;209360;-73
2022/10/25 04:32:40;;;;;;;;;;;12.70;99.90;;;;;;5032324;28;19917;-72
2022/10/25 04:35:07;;;;;;;;;;;12.70;99.90;;;;;;4980207;28;198628;-72
2022/10/25 04:37:33;;;;;;;;;;;12.70;99.90;;;;;;5035964;28;19921;-70
2022/10/25 04:39:58;;;;;;;;;;;12.70;99.90;;;;;;4970179;28;211809;-73
2022/10/25 04:42:24;;;;;;;;;;;12.70;99.90;;;;;;5006947;28;20485;-72
2022/10/25 04:44:50;;;;;;;;;;;12.70;99.90;;;;;;4984599;28;210544;-72
2022/10/25 04:47:16;;;;;;;;;;;12.80;99.90;;;;;;5003983;28;19917;-72
2022/10/25 04:49:42;;;;;;;;;;;12.70;99.90;;;;;;4997254;28;208139;-72
2022/10/25 04:52:08;;;;;;;;;;;12.80;99.90;;;;;;5017394;28;19917;-71
2022/10/25 04:54:34;;;;;;;;;;;12.70;99.90;;;;;;5029170;28;20043;-72
2022/10/25 04:57:00;;;;;;;;;;;12.70;99.90;;;;;;4948726;28;235517;-72
2022/10/25 04:59:26;;;;;;;;;;;12.70;99.90;;;;;;5022652;28;19936;-73
2022/10/25 05:01:52;;;;;;;;;;;12.70;99.90;;;;;;4992497;28;207349;-72
2022/10/25 05:04:18;;;;;;;;;;;12.70;99.90;;;;;;5057937;28;19925;-72
2022/10/25 05:06:44;;;;;;;;;;;12.70;99.90;;;;;;4967974;28;222388;-73
2022/10/25 05:09:10;;;;;;;;;;;12.70;99.90;;;;;;5025841;28;19932;-71
2022/10/25 05:11:36;;;;;;;;;;;12.70;99.90;;;;;;4979204;28;51255;-71
2022/10/25 05:14:02;;;;;;;;;;;12.70;99.90;;;;;;5026612;28;20468;-71
2022/10/25 05:16:28;;;;;;;;;;;12.80;99.90;;;;;;4956107;28;188172;-71
2022/10/25 05:18:54;;;;;;;;;;;12.70;99.90;;;;;;5053908;28;20370;-73
2022/10/25 05:21:21;;;;;;;;;;;12.70;99.90;;;;;;4978245;28;219843;-73
2022/10/25 05:23:47;;;;;;;;;;;12.70;99.90;;;;;;5055834;28;19929;-71
2022/10/25 05:26:17;;;;;;;;;;;12.70;99.90;;;;;;4978103;28;225041;-72
2022/10/25 05:28:45;;;;;;;;;;;12.70;99.90;;;;;;5029130;28;19924;-73
2022/10/25 05:31:19;;;;;;;;;;;12.60;99.90;;;;;;4960286;28;207211;-71
2022/10/25 05:33:47;;;;;;;;;;;12.60;99.90;;;;;;5007969;28;19932;-72
2022/10/25 05:36:13;;;;;;;;;;;12.50;99.90;;;;;;4988620;28;135653;-72
2022/10/25 05:38:39;;;;;;;;;;;12.50;99.90;;;;;;5035257;28;20423;-71
2022/10/25 05:41:05;;;;;;;;;;;12.50;99.90;;;;;;4973574;28;136312;-73
2022/10/25 05:43:31;;;;;;;;;;;12.50;99.90;;;;;;5017251;28;20017;-72
2022/10/25 05:46:07;;;;;;;;;;;12.50;99.90;;;;;;4980665;28;213174;-71
2022/10/25 05:48:34;;;;;;;;;;;12.50;99.90;;;;;;5035721;28;19932;-72
2022/10/25 05:51:29;;;;;;;;;;;12.50;99.90;;;;;;4980820;28;150342;-72
2022/10/25 05:53:56;;;;;;;;;;;12.50;99.90;;;;;;5039588;28;19921;-72
2022/10/25 05:56:23;;;;;;;;;;;12.50;99.90;;;;;;4959805;28;187351;-72
2022/10/25 05:58:50;;;;;;;;;;;12.50;99.90;;;;;;5034779;28;20012;-72
2022/10/25 06:01:18;;;;;;;;;;;12.50;99.90;;;;;;4952126;28;231714;-70
2022/10/25 06:03:48;;;;;;;;;;;12.40;99.90;;;;;;5002807;28;21377;-70
2022/10/25 06:06:14;;;;;;;;;;;12.40;99.90;;;;;;4938601;28;159744;-71
2022/10/25 06:08:40;;;;;;;;;;;12.40;99.90;;;;;;5001005;28;19929;-70
2022/10/25 06:11:07;;;;;;;;;;;12.40;99.90;;;;;;4945376;28;217424;-70
2022/10/25 06:13:33;;;;;;;;;;;12.40;99.90;;;;;;5019402;28;19925;-69
2022/10/25 06:16:03;;;;;;;;;;;12.40;99.90;;;;;;4974643;28;207313;-71
2022/10/25 06:18:33;;;;;;;;;;;12.40;99.90;;;;;;5025365;28;19928;-70
2022/10/25 06:21:00;;;;;;;;;;;12.40;99.90;;;;;;4947972;28;162467;-71
2022/10/25 06:23:26;;;;;;;;;;;12.40;99.90;;;;;;4998498;28;19925;-69
2022/10/25 06:25:57;;;;;;;;;;;12.40;99.90;;;;;;4951355;28;224758;-70
2022/10/25 06:28:23;;;;;;;;;;;12.40;99.90;;;;;;4993409;28;19921;-70
2022/10/25 06:30:49;;;;;;;;;;;12.30;99.90;;;;;;4948763;28;242018;-70
2022/10/25 06:33:15;;;;;;;;;;;12.30;99.90;;;;;;4993988;28;19928;-69
2022/10/25 06:35:41;;;;;;;;;;;12.30;99.90;;;;;;4980660;28;220140;-72
2022/10/25 06:38:07;;;;;;;;;;;12.30;99.90;;;;;;5029915;28;19917;-70
2022/10/25 06:40:34;;;;;;;;;;;12.40;99.90;;;;;;4970357;28;207446;-70
2022/10/25 06:43:01;;;;;;;;;;;12.40;99.90;;;;;;5044016;28;20298;-71
2022/10/25 06:45:27;;;;;;;;;;;12.40;99.90;;;;;;5010027;28;120159;-71
2022/10/25 06:47:53;;;;;;;;;;;12.30;99.90;;;;;;5019940;28;19928;-71
2022/10/25 06:50:19;;;;;;;;;;;12.40;99.90;;;;;;4985652;28;165330;-68
2022/10/25 06:52:45;;;;;;;;;;;12.40;99.90;;;;;;5011107;28;20418;-71
2022/10/25 06:55:11;;;;;;;;;;;12.40;99.90;;;;;;4982353;28;219273;-72
2022/10/25 06:57:37;;;;;;;;;;;12.30;99.90;;;;;;5029831;28;20366;-71
2022/10/25 07:00:03;;;;;;;;;;;12.40;99.90;;;;;;4982703;28;208974;-70
2022/10/25 07:02:29;;;;;;;;;;;12.30;99.90;;;;;;5056483;28;20330;-70
2022/10/25 07:04:58;;;;;;;;;;;12.40;99.90;;;;;;4974658;28;214576;-72
2022/10/25 07:07:24;;;;;;;;;;;12.40;99.90;;;;;;5044810;28;19921;-71
2022/10/25 07:09:50;;;;;;;;;;;12.40;99.90;;;;;;4978775;28;213355;-70
2022/10/25 07:12:19;;;;;;;;;;;12.40;99.90;;;;;;5019608;28;19921;-70
2022/10/25 07:14:45;;;;;;;;;;;12.40;99.90;;;;;;4985986;28;216411;-70
2022/10/25 07:17:11;;;;;;;;;;;12.40;99.90;;;;;;5018073;28;19952;-70
2022/10/25 07:19:37;;;;;;;;;;;12.40;99.90;;;;;;5014806;28;216365;-71
2022/10/25 07:22:03;;;;;;;;;;;12.40;99.90;;;;;;4888811;28;3043945;-71
2022/10/25 07:24:30;;;;;;;;;;;12.50;99.90;;;;;;5010629;28;20012;-71
2022/10/25 07:26:55;;;;;;;;;;;12.50;99.90;;;;;;4993064;28;204677;-70
2022/10/25 07:29:24;;;;;;;;;;;12.60;99.90;;;;;;5030954;28;19927;-70
2022/10/25 07:31:50;;;;;;;;;;;12.60;99.90;;;;;;4974438;28;211386;-70
2022/10/25 07:34:16;;;;;;;;;;;12.70;99.90;;;;;;5026705;28;19925;-70
2022/10/25 07:36:42;;;;;;;;;;;12.70;99.90;;;;;;4974634;28;190430;-70
2022/10/25 07:39:09;;;;;;;;;;;12.80;99.90;;;;;;5061552;28;19963;-70
2022/10/25 07:41:35;;;;;;;;;;;12.80;99.90;;;;;;4977004;28;144135;-70
2022/10/25 07:44:01;;;;;;;;;;;12.80;99.90;;;;;;5023647;28;19925;-71
2022/10/25 07:46:26;;;;;;;;;;;12.90;99.90;;;;;;5012377;28;161540;-71
2022/10/25 07:48:52;;;;;;;;;;;12.90;99.90;;;;;;5030820;28;19924;-70
2022/10/25 07:51:19;;;;;;;;;;;12.90;99.90;;;;;;4985279;28;198826;-70
2022/10/25 07:53:45;;;;;;;;;;;13.00;99.90;;;;;;5019238;28;19928;-70
2022/10/25 07:56:11;;;;;;;;;;;13.00;99.90;;;;;;4968464;28;206843;-70
2022/10/25 07:58:37;;;;;;;;;;;13.10;99.90;;;;;;5024320;28;20333;-71
2022/10/25 08:01:04;;;;;;;;;;;13.10;99.90;;;;;;4981187;28;150648;-71
2022/10/25 08:03:30;;;;;;;;;;;13.10;99.90;;;;;;5023068;28;19920;-71
2022/10/25 08:05:56;;;;;;;;;;;13.20;99.90;;;;;;4974883;28;125820;-71
2022/10/25 08:08:24;;;;;;;;;;;13.20;99.90;;;;;;5026627;28;19925;-70
2022/10/25 08:10:50;;;;;;;;;;;13.30;99.90;;;;;;4983727;28;207149;-71
2022/10/25 08:13:16;;;;;;;;;;;13.30;99.90;;;;;;5026837;28;19917;-70
2022/10/25 08:15:47;;;;;;;;;;;13.30;99.90;;;;;;4986050;28;208552;-70
2022/10/25 08:18:14;;;;;;;;;;;13.40;99.90;;;;;;5023696;28;19924;-69
2022/10/25 08:20:40;;;;;;;;;;;13.50;99.90;;;;;;4975351;28;200707;-72
2022/10/25 08:23:06;;;;;;;;;;;13.50;99.90;;;;;;5014682;28;20371;-70
2022/10/25 08:25:32;;;;;;;;;;;13.50;99.90;;;;;;4985061;28;100084;-71
2022/10/25 08:28:01;;;;;;;;;;;13.50;99.90;;;;;;5024974;28;19921;-70
2022/10/25 08:30:27;;;;;;;;;;;13.50;99.90;;;;;;4992084;28;99135;-69
2022/10/25 08:32:53;;;;;;;;;;;13.60;99.90;;;;;;5016795;28;19924;-70
2022/10/25 08:35:19;;;;;;;;;;;13.60;99.90;;;;;;4999482;28;196626;-70
2022/10/25 08:37:45;;;;;;;;;;;13.60;99.90;;;;;;5000315;28;19950;-71
2022/10/25 08:40:20;;;;;;;;;;;13.60;99.90;;;;;;4977593;28;231271;-69
2022/10/25 08:42:52;;;;;;;;;;;13.60;99.90;;;;;;5044338;28;19932;-69
2022/10/25 08:45:21;;;;;;;;;;;13.60;99.90;;;;;;5003923;28;211050;-71
2022/10/25 08:47:52;;;;;;;;;;;13.80;99.90;;;;;;4994362;28;19924;-69
2022/10/25 08:50:23;;;;;;;;;;;13.80;99.90;;;;;;5000647;28;182455;-68
2022/10/25 08:52:54;;;;;;;;;;;13.90;99.90;;;;;;5006606;28;19917;-69
2022/10/25 08:55:41;;;;;;;;;;;13.90;99.90;;;;;;4979214;28;213128;-69
2022/10/25 08:58:33;;;;;;;;;;;14.00;99.90;;;;;;5019108;28;19920;-69
2022/10/25 09:01:01;;;;;;;;;;;14.10;99.90;;;;;;4959856;28;203858;-70
2022/10/25 09:03:27;;;;;;;;;;;14.10;99.90;;;;;;5015054;28;19921;-70
2022/10/25 09:05:56;;;;;;;;;;;14.10;99.90;;;;;;4953720;28;215452;-68
2022/10/25 09:08:25;;;;;;;;;;;14.10;99.90;;;;;;5026236;28;19932;-70
2022/10/25 09:11:03;;;;;;;;;;;14.20;99.90;;;;;;4972520;28;214058;-69
2022/10/25 09:13:41;;;;;;;;;;;14.20;99.90;;;;;;4994981;28;20400;-70
2022/10/25 09:16:10;;;;;;;;;;;14.30;99.90;;;;;;4979442;28;211240;-70
2022/10/25 09:18:42;;;;;;;;;;;14.40;99.90;;;;;;5024277;28;20480;-70
2022/10/25 09:21:13;;;;;;;;;;;14.40;99.90;;;;;;4975551;28;217450;-70
2022/10/25 09:23:40;;;;;;;;;;;14.50;99.90;;;;;;5006800;28;19927;-69
2022/10/25 09:26:24;;;;;;;;;;;14.40;99.90;;;;;;4967911;28;210009;-68
2022/10/25 09:29:00;;;;;;;;;;;14.50;99.90;;;;;;5006310;28;19925;-70
2022/10/25 09:31:26;;;;;;;;;;;14.60;99.90;;;;;;4992047;28;150208;-69
2022/10/25 09:33:58;;;;;;;;;;;14.60;99.90;;;;;;5012238;28;19924;-69
2022/10/25 09:36:26;;;;;;;;;;;14.60;99.90;;;;;;4988071;28;55470;-68
2022/10/25 09:38:55;;;;;;;;;;;14.70;99.90;;;;;;5023488;28;19917;-70
2022/10/25 09:41:36;;;;;;;;;;;14.80;99.90;;;;;;4999354;28;145552;-71
2022/10/25 09:44:15;;;;;;;;;;;14.80;99.90;;;;;;5026828;28;19921;-69
2022/10/25 09:46:43;;;;;;;;;;;14.80;99.90;;;;;;5005312;28;177390;-70
2022/10/25 09:49:13;;;;;;;;;;;14.80;99.90;;;;;;5010079;28;19917;-71
2022/10/25 09:51:56;;;;;;;;;;;14.80;99.90;;;;;;4964061;28;214794;-70
2022/10/25 09:54:42;;;;;;;;;;;14.80;99.90;;;;;;5061723;28;20322;-71
2022/10/25 09:57:08;;;;;;;;;;;14.70;99.90;;;;;;4961239;28;211795;-71
2022/10/25 09:59:34;;;;;;;;;;;14.80;99.90;;;;;;5025075;28;19924;-70
2022/10/25 10:02:00;;;;;;;;;;;14.80;99.90;;;;;;4989292;28;186813;-70
2022/10/25 10:04:32;;;;;;;;;;;14.90;99.90;;;;;;5033452;28;19917;-70
2022/10/25 10:07:01;;;;;;;;;;;14.90;99.90;;;;;;4966897;28;153476;-70
2022/10/25 10:09:28;;;;;;;;;;;15.10;99.90;;;;;;5025238;28;20306;-70
2022/10/25 10:11:55;;;;;;;;;;;15.10;99.90;;;;;;5011414;28;125319;-70
2022/10/25 10:14:22;;;;;;;;;;;15.10;99.90;;;;;;5061270;28;20294;-70
2022/10/25 10:16:49;;;;;;;;;;;15.10;99.90;;;;;;4990851;28;132826;-70
2022/10/25 10:19:18;;;;;;;;;;;15.10;99.90;;;;;;5033354;28;19921;-70
2022/10/25 10:21:49;;;;;;;;;;;15.10;99.90;;;;;;5013712;28;163340;-71
2022/10/25 10:24:22;;;;;;;;;;;15.00;99.90;;;;;;5038460;28;19917;-70
2022/10/25 10:26:53;;;;;;;;;;;15.00;99.90;;;;;;4983097;28;184373;-70
2022/10/25 10:29:20;;;;;;;;;;;15.00;99.90;;;;;;5060916;28;20429;-70
2022/10/25 10:31:48;;;;;;;;;;;15.10;99.90;;;;;;4942705;28;150765;-70
2022/10/25 10:34:30;;;;;;;;;;;15.20;99.90;;;;;;5063131;28;19924;-71
2022/10/25 10:37:02;;;;;;;;;;;15.20;99.90;;;;;;4986213;28;145060;-71
2022/10/25 10:39:28;;;;;;;;;;;15.30;99.90;;;;;;5027984;28;19921;-71
2022/10/25 10:42:02;;;;;;;;;;;15.30;99.90;;;;;;4978283;28;198215;-71
2022/10/25 10:44:29;;;;;;;;;;;15.50;99.90;;;;;;5027134;28;20420;-71
2022/10/25 10:46:55;;;;;;;;;;;15.50;99.90;;;;;;4965767;28;210852;-70
2022/10/25 10:49:31;;;;;;;;;;;15.50;99.90;;;;;;5030552;28;19924;-72
2022/10/25 10:51:57;;;;;;;;;;;15.60;99.90;;;;;;4990909;28;178079;-70
2022/10/25 10:54:28;;;;;;;;;;;15.80;99.90;;;;;;5030295;28;19925;-71
2022/10/25 10:56:57;;;;;;;;;;;15.90;99.90;;;;;;4967756;28;161759;-69
2022/10/25 10:59:25;;;;;;;;;;;15.90;99.90;;;;;;5034378;28;19924;-70
2022/10/25 11:01:51;;;;;;;;;;;16.00;99.90;;;;;;5002577;28;207567;-70
2022/10/25 11:04:16;;;;;;;;;;;16.10;99.90;;;;;;5023792;28;20301;-69
2022/10/25 11:06:43;;;;;;;;;;;16.00;99.90;;;;;;4985566;28;208573;-70
2022/10/25 11:09:14;;;;;;;;;;;16.10;99.90;;;;;;5008800;28;19925;-70
2022/10/25 11:11:41;;;;;;;;;;;16.10;99.90;;;;;;4970057;28;163374;-69
2022/10/25 11:14:12;;;;;;;;;;;16.20;99.90;;;;;;5027932;28;19943;-71
2022/10/25 11:16:56;;;;;;;;;;;16.10;99.90;;;;;;4973517;28;209666;-72
2022/10/25 11:19:41;;;;;;;;;;;16.10;99.90;;;;;;5028853;28;19921;-71
2022/10/25 11:22:10;;;;;;;;;;;16.10;99.90;;;;;;4961531;28;207090;-70
2022/10/25 11:24:36;;;;;;;;;;;16.10;99.90;;;;;;5023298;28;211941;-69
2022/10/25 11:27:15;;;;;;;;;;;16.10;99.90;;;;;;4965854;28;106656;-70
2022/10/25 11:29:52;;;;;;;;;;;16.10;99.90;;;;;;4993050;28;208048;-71
2022/10/25 11:32:24;;;;;;;;;;;16.20;99.90;;;;;;5005446;28;19924;-71
2022/10/25 11:35:14;;;;;;;;;;;16.30;99.90;;;;;;4984240;28;207423;-71
2022/10/25 11:37:41;;;;;;;;;;;16.30;99.90;;;;;;5031742;28;19929;-71
2022/10/25 11:40:13;;;;;;;;;;;16.40;99.90;;;;;;4967252;28;204877;-71
2022/10/25 11:42:39;;;;;;;;;;;16.60;99.90;;;;;;5053323;28;19920;-72
2022/10/25 11:45:21;;;;;;;;;;;17.20;99.90;;;;;;4973222;28;237806;-70
2022/10/25 11:48:06;;;;;;;;;;;17.10;99.90;;;;;;5027636;28;20436;-70
2022/10/25 11:50:58;;;;;;;;;;;17.00;99.90;;;;;;4997812;28;116961;-70
2022/10/25 11:53:42;;;;;;;;;;;17.50;99.90;;;;;;5003514;28;19925;-71
2022/10/25 11:56:14;;;;;;;;;;;17.60;99.90;;;;;;4983380;28;199657;-70
2022/10/25 11:58:43;;;;;;;;;;;17.50;99.90;;;;;;5036451;28;19920;-72
2022/10/25 12:01:25;;;;;;;;;;;17.20;99.90;;;;;;4976958;28;211313;-71
2022/10/25 12:03:57;;;;;;;;;;;17.20;99.90;;;;;;5030840;28;19952;-71
2022/10/25 12:06:29;;;;;;;;;;;17.90;99.90;;;;;;4971812;28;207339;-70
2022/10/25 12:09:02;;;;;;;;;;;17.70;99.90;;;;;;5024784;28;20597;-71
2022/10/25 12:11:36;;;;;;;;;;;17.50;99.90;;;;;;4957433;28;153603;-71
2022/10/25 12:14:04;;;;;;;;;;;17.20;99.90;;;;;;5025714;28;19928;-70
2022/10/25 12:16:31;;;;;;;;;;;17.10;99.90;;;;;;4987997;28;211353;-71
2022/10/25 12:19:18;;;;;;;;;;;17.10;99.90;;;;;;5026452;28;19921;-71
2022/10/25 12:21:48;;;;;;;;;;;17.00;99.90;;;;;;5008531;28;201897;-70
2022/10/25 12:24:19;;;;;;;;;;;16.90;99.90;;;;;;5026629;28;19925;-69
2022/10/25 12:26:45;;;;;;;;;;;16.70;99.90;;;;;;4949848;28;182884;-71
2022/10/25 12:29:14;;;;;;;;;;;16.60;99.90;;;;;;5045834;28;19922;-71
2022/10/25 12:31:49;;;;;;;;;;;16.50;99.90;;;;;;4974463;28;167221;-69
2022/10/25 12:34:21;;;;;;;;;;;16.40;99.90;;;;;;5063759;28;19921;-69
2022/10/25 12:37:00;;;;;;;;;;;16.40;99.90;;;;;;4947402;28;181806;-70
2022/10/25 12:39:37;;;;;;;;;;;16.40;99.90;;;;;;5026034;28;20457;-70
2022/10/25 12:42:05;;;;;;;;;;;17.00;99.90;;;;;;4959486;28;129831;-71
2022/10/25 12:44:31;;;;;;;;;;;17.70;99.90;;;;;;5031164;28;19917;-70
2022/10/25 12:47:01;;;;;;;;;;;18.20;99.90;;;;;;4986997;28;195416;-70
2022/10/25 12:49:32;;;;;;;;;;;18.40;99.90;;;;;;5058344;28;19924;-71
2022/10/25 12:52:16;;;;;;;;;;;18.00;99.90;;;;;;4980648;28;157545;-71
2022/10/25 12:54:57;;;;;;;;;;;17.80;99.90;;;;;;4991367;28;217054;-69
2022/10/25 12:57:26;;;;;;;;;;;17.60;99.90;;;;;;4987256;28;19940;-71
2022/10/25 12:59:55;;;;;;;;;;;17.80;99.90;;;;;;4978557;28;211897;-70
2022/10/25 13:02:37;;;;;;;;;;;18.10;99.90;;;;;;5027411;28;19925;-70
2022/10/25 13:05:06;;;;;;;;;;;19.20;99.90;;;;;;4975392;28;162486;-71
2022/10/25 13:07:33;;;;;;;;;;;20.30;99.90;;;;;;5020136;28;19928;-70
2022/10/25 13:10:13;;;;;;;;;;;20.80;99.90;;;;;;4976262;28;221118;-70
2022/10/25 13:12:39;;;;;;;;;;;21.20;99.90;;;;;;5005213;28;19921;-70
2022/10/25 13:15:05;;;;;;;;;;;21.40;99.90;;;;;;4976398;28;208166;-70
2022/10/25 13:17:37;;;;;;;;;;;21.50;99.90;;;;;;5026017;28;19917;-70
2022/10/25 13:20:18;;;;;;;;;;;21.40;99.90;;;;;;4979256;28;186218;-70
2022/10/25 13:22:44;;;;;;;;;;;21.80;99.90;;;;;;5049222;28;19924;-69
2022/10/25 13:25:10;;;;;;;;;;;21.70;99.90;;;;;;4983262;28;213382;-70
2022/10/25 13:27:37;;;;;;;;;;;21.80;99.90;;;;;;5023674;28;19955;-69
2022/10/25 13:30:03;;;;;;;;;;;21.10;99.90;;;;;;4985611;28;113342;-69
2022/10/25 13:32:33;;;;;;;;;;;21.20;99.90;;;;;;5019454;28;19921;-68
2022/10/25 13:35:01;;;;;;;;;;;21.30;99.90;;;;;;4968320;28;217638;-69
2022/10/25 13:37:33;;;;;;;;;;;21.90;99.90;;;;;;5013737;28;19925;-70
2022/10/25 13:40:03;;;;;;;;;;;22.30;99.90;;;;;;4975763;28;219392;-72
2022/10/25 13:42:32;;;;;;;;;;;22.70;99.90;;;;;;5015421;28;19925;-70
2022/10/25 13:45:01;;;;;;;;;;;22.70;98.80;;;;;;4969101;28;211722;-71
2022/10/25 13:47:40;;;;;;;;;;;22.90;99.20;;;;;;5027992;28;19924;-71
2022/10/25 13:50:10;;;;;;;;;;;22.90;98.90;;;;;;4978627;28;132627;-70
2022/10/25 13:52:37;;;;;;;;;;;22.10;98.90;;;;;;5022843;28;19924;-69
2022/10/25 13:55:05;;;;;;;;;;;21.10;99.90;;;;;;4982020;28;109048;-69
2022/10/25 13:57:54;;;;;;;;;;;20.10;99.90;;;;;;5027688;28;19943;-70
2022/10/25 14:00:25;;;;;;;;;;;19.40;99.90;;;;;;4953908;28;205047;-69
2022/10/25 14:03:08;;;;;;;;;;;18.90;99.90;;;;;;5008616;28;20413;-69
2022/10/25 14:05:52;;;;;;;;;;;18.30;99.90;;;;;;4979092;28;19928;-69
2022/10/25 14:08:24;;;;;;;;;;;17.90;99.90;;;;;;4994371;28;19924;-69
2022/10/25 14:10:50;;;;;;;;;;;17.60;99.90;;;;;;4957569;28;186953;-68
2022/10/25 14:13:37;;;;;;;;;;;17.40;99.90;;;;;;5005767;28;19944;-70
2022/10/25 14:16:03;;;;;;;;;;;17.20;99.90;;;;;;4937774;28;141830;-70
2022/10/25 14:18:32;;;;;;;;;;;17.20;99.90;;;;;;4950662;28;19922;-69
2022/10/25 14:21:00;;;;;;;;;;;17.00;99.90;;;;;;4928940;28;185848;-70
2022/10/25 14:23:29;;;;;;;;;;;16.90;99.90;;;;;;4970074;28;19919;-68